sensor_id;sensor_type;location;lat;lon;timestamp;temperature;humidity
27741;DHT22;15134;48.768;9.184;2022-11-20T00:01:27;7.30;99.90
27741;DHT22;15134;48.768;9.184;2022-11-20T00:03:55;7.20;99.90
27741;DHT22;15134;48.768;9.184;2022-11-20T00:06:27;7.20;99.90
27741;DHT22;15134;48.768;9.184;2022-11-20T00:08:55;7.20;99.90
27741;DHT22;15134;48.768;9.184;2022-11-20T00:11:23;7.20;99.90
27741;DHT22;15134;48.768;9.184;2022-11-20T00:13:55;7.20;99.90
27741;DHT22;15134;48.768;9.184;2022-11-20T00:16:24;7.30;99.90
27741;DHT22;15134;48.768;9.184;2022-11-20T00:18:51;7.30;99.90
27741;DHT22;15134;48.768;9.184;2022-11-20T00:21:23;7.30;99.90
27741;DHT22;15134;48.768;9.184;2022-11-20T00:23:50;7.20;99.90
27741;DHT22;15134;48.768;9.184;2022-11-20T00:26:18;7.30;99.90
27741;DHT22;15134;48.768;9.184;2022-11-20T00:28:56;7.30;99.90
27741;DHT22;15134;48.768;9.184;2022-11-20T00:31:22;7.30;99.90
27741;DHT22;15134;48.768;9.184;2022-11-20T00:33:48;7.30;99.90
27741;DHT22;15134;48.768;9.184;2022-11-20T00:36:22;7.30;99.90
27741;DHT22;15134;48.768;9.184;2022-11-20T00:38:51;7.40;99.90
27741;DHT22;15134;48.768;9.184;2022-11-20T00:41:17;7.40;99.90
27741;DHT22;15134;48.768;9.184;2022-11-20T00:43:43;7.50;99.90
27741;DHT22;15134;48.768;9.184;2022-11-20T00:46:14;7.50;99.90
27741;DHT22;15134;48.768;9.184;2022-11-20T00:48:40;7.50;99.90
27741;DHT22;15134;48.768;9.184;2022-11-20T00:51:07;7.50;99.90
27741;DHT22;15134;48.768;9.184;2022-11-20T00:53:33;7.50;99.90
27741;DHT22;15134;48.768;9.184;2022-11-20T00:56:01;7.50;99.90
27741;DHT22;15134;48.768;9.184;2022-11-20T00:58:36;7.50;99.90
27741;DHT22;15134;48.768;9.184;2022-11-20T01:01:04;7.50;99.90
27741;DHT22;15134;48.768;9.184;2022-11-20T01:03:41;7.50;99.90
27741;DHT22;15134;48.768;9.184;2022-11-20T01:06:16;7.50;99.90
27741;DHT22;15134;48.768;9.184;2022-11-20T01:08:50;7.50;99.90
27741;DHT22;15134;48.768;9.184;2022-11-20T01:11:19;7.50;99.90
27741;DHT22;15134;48.768;9.184;2022-11-20T01:13:47;7.50;99.90
27741;DHT22;15134;48.768;9.184;2022-11-20T01:16:16;7.50;99.90
27741;DHT22;15134;48.768;9.184;2022-11-20T01:18:45;7.50;99.90
27741;DHT22;15134;48.768;9.184;2022-11-20T01:21:14;7.50;99.90
27741;DHT22;15134;48.768;9.184;2022-11-20T01:23:42;7.50;99.90
27741;DHT22;15134;48.768;9.184;2022-11-20T01:26:13;7.40;99.90
27741;DHT22;15134;48.768;9.184;2022-11-20T01:28:40;7.40;99.90
27741;DHT22;15134;48.768;9.184;2022-11-20T01:31:14;7.50;99.90
27741;DHT22;15134;48.768;9.184;2022-11-20T01:33:41;7.40;99.90
27741;DHT22;15134;48.768;9.184;2022-11-20T01:36:12;7.50;99.90
27741;DHT22;15134;48.768;9.184;2022-11-20T01:38:37;7.40;99.90
27741;DHT22;15134;48.768;9.184;2022-11-20T01:41:06;7.40;99.90
27741;DHT22;15134;48.768;9.184;2022-11-20T01:43:33;7.40;99.90
27741;DHT22;15134;48.768;9.184;2022-11-20T01:48:54;7.30;99.90
27741;DHT22;15134;48.768;9.184;2022-11-20T01:51:42;7.30;99.90
27741;DHT22;15134;48.768;9.184;2022-11-20T01:54:14;7.20;99.90
27741;DHT22;15134;48.768;9.184;2022-11-20T01:56:45;7.20;99.90
27741;DHT22;15134;48.768;9.184;2022-11-20T01:59:17;7.20;99.90
27741;DHT22;15134;48.768;9.184;2022-11-20T02:01:44;7.20;99.90
27741;DHT22;15134;48.768;9.184;2022-11-20T02:04:10;7.20;99.90
27741;DHT22;15134;48.768;9.184;2022-11-20T02:06:42;7.30;99.90
27741;DHT22;15134;48.768;9.184;2022-11-20T02:09:08;7.20;99.90
27741;DHT22;15134;48.768;9.184;2022-11-20T02:11:34;7.20;99.90
27741;DHT22;15134;48.768;9.184;2022-11-20T02:13:59;7.20;99.90
27741;DHT22;15134;48.768;9.184;2022-11-20T02:16:31;7.20;99.90
27741;DHT22;15134;48.768;9.184;2022-11-20T02:19:00;7.30;99.90
27741;DHT22;15134;48.768;9.184;2022-11-20T02:21:28;7.30;99.90
27741;DHT22;15134;48.768;9.184;2022-11-20T02:24:09;7.30;99.90
27741;DHT22;15134;48.768;9.184;2022-11-20T02:29:08;7.30;99.90
27741;DHT22;15134;48.768;9.184;2022-11-20T02:31:40;7.20;99.90
27741;DHT22;15134;48.768;9.184;2022-11-20T02:34:06;7.10;99.90
27741;DHT22;15134;48.768;9.184;2022-11-20T02:36:34;7.10;99.90
27741;DHT22;15134;48.768;9.184;2022-11-20T02:39:02;7.10;99.90
27741;DHT22;15134;48.768;9.184;2022-11-20T02:41:34;7.10;99.90
27741;DHT22;15134;48.768;9.184;2022-11-20T02:44:00;7.10;99.90
27741;DHT22;15134;48.768;9.184;2022-11-20T02:46:32;7.10;99.90
27741;DHT22;15134;48.768;9.184;2022-11-20T02:48:58;7.10;99.90
27741;DHT22;15134;48.768;9.184;2022-11-20T02:51:24;7.20;99.90
27741;DHT22;15134;48.768;9.184;2022-11-20T02:53:50;7.20;99.90
27741;DHT22;15134;48.768;9.184;2022-11-20T02:56:16;7.20;99.90
27741;DHT22;15134;48.768;9.184;2022-11-20T02:58:41;7.30;99.90
27741;DHT22;15134;48.768;9.184;2022-11-20T03:01:07;7.30;99.90
27741;DHT22;15134;48.768;9.184;2022-11-20T03:03:33;7.20;99.90
27741;DHT22;15134;48.768;9.184;2022-11-20T03:05:59;7.20;99.90
27741;DHT22;15134;48.768;9.184;2022-11-20T03:08:25;7.30;99.90
27741;DHT22;15134;48.768;9.184;2022-11-20T03:10:51;7.30;99.90
27741;DHT22;15134;48.768;9.184;2022-11-20T03:13:17;7.30;99.90
27741;DHT22;15134;48.768;9.184;2022-11-20T03:15:45;7.40;99.90
27741;DHT22;15134;48.768;9.184;2022-11-20T03:18:11;7.30;99.90
27741;DHT22;15134;48.768;9.184;2022-11-20T03:20:39;7.30;99.90
27741;DHT22;15134;48.768;9.184;2022-11-20T03:23:05;7.30;99.90
27741;DHT22;15134;48.768;9.184;2022-11-20T03:25:31;7.40;99.90
27741;DHT22;15134;48.768;9.184;2022-11-20T03:27:56;7.30;99.90
27741;DHT22;15134;48.768;9.184;2022-11-20T03:30:22;7.30;99.90
27741;DHT22;15134;48.768;9.184;2022-11-20T03:32:48;7.30;99.90
27741;DHT22;15134;48.768;9.184;2022-11-20T03:35:13;7.30;99.90
27741;DHT22;15134;48.768;9.184;2022-11-20T03:37:39;7.30;99.90
27741;DHT22;15134;48.768;9.184;2022-11-20T03:40:05;7.20;99.90
27741;DHT22;15134;48.768;9.184;2022-11-20T03:42:31;7.20;99.90
27741;DHT22;15134;48.768;9.184;2022-11-20T03:45:18;7.20;99.90
27741;DHT22;15134;48.768;9.184;2022-11-20T03:47:46;7.10;99.90
27741;DHT22;15134;48.768;9.184;2022-11-20T03:50:13;7.00;99.90
27741;DHT22;15134;48.768;9.184;2022-11-20T03:52:39;7.00;99.90
27741;DHT22;15134;48.768;9.184;2022-11-20T03:55:06;6.90;99.90
27741;DHT22;15134;48.768;9.184;2022-11-20T03:57:33;6.90;99.90
27741;DHT22;15134;48.768;9.184;2022-11-20T03:59:59;6.90;99.90
27741;DHT22;15134;48.768;9.184;2022-11-20T04:02:24;6.90;99.90
27741;DHT22;15134;48.768;9.184;2022-11-20T04:04:50;6.80;99.90
27741;DHT22;15134;48.768;9.184;2022-11-20T04:07:16;6.80;99.90
27741;DHT22;15134;48.768;9.184;2022-11-20T04:09:41;6.80;99.90
27741;DHT22;15134;48.768;9.184;2022-11-20T04:12:07;6.70;99.90
27741;DHT22;15134;48.768;9.184;2022-11-20T04:14:33;6.70;99.90
27741;DHT22;15134;48.768;9.184;2022-11-20T04:16:58;6.60;99.90
27741;DHT22;15134;48.768;9.184;2022-11-20T04:19:24;6.70;99.90
27741;DHT22;15134;48.768;9.184;2022-11-20T04:21:50;6.70;99.90
27741;DHT22;15134;48.768;9.184;2022-11-20T04:24:15;6.70;99.90
27741;DHT22;15134;48.768;9.184;2022-11-20T04:26:41;6.80;99.90
27741;DHT22;15134;48.768;9.184;2022-11-20T04:29:09;6.80;99.90
27741;DHT22;15134;48.768;9.184;2022-11-20T04:31:37;6.80;99.90
27741;DHT22;15134;48.768;9.184;2022-11-20T04:34:04;6.80;99.90
27741;DHT22;15134;48.768;9.184;2022-11-20T04:36:31;6.80;99.90
27741;DHT22;15134;48.768;9.184;2022-11-20T04:39:02;6.80;99.90
27741;DHT22;15134;48.768;9.184;2022-11-20T04:41:32;6.80;99.90
27741;DHT22;15134;48.768;9.184;2022-11-20T04:44:00;6.80;99.90
27741;DHT22;15134;48.768;9.184;2022-11-20T04:46:33;6.90;99.90
27741;DHT22;15134;48.768;9.184;2022-11-20T04:49:00;6.90;99.90
27741;DHT22;15134;48.768;9.184;2022-11-20T04:51:26;7.00;99.90
27741;DHT22;15134;48.768;9.184;2022-11-20T04:53:51;7.00;99.90
27741;DHT22;15134;48.768;9.184;2022-11-20T04:56:17;7.00;99.90
27741;DHT22;15134;48.768;9.184;2022-11-20T04:58:43;7.00;99.90
27741;DHT22;15134;48.768;9.184;2022-11-20T05:01:13;7.00;99.90
27741;DHT22;15134;48.768;9.184;2022-11-20T05:03:40;7.00;99.90
27741;DHT22;15134;48.768;9.184;2022-11-20T05:06:06;7.00;99.90
27741;DHT22;15134;48.768;9.184;2022-11-20T05:08:33;7.00;99.90
27741;DHT22;15134;48.768;9.184;2022-11-20T05:11:04;7.00;99.90
27741;DHT22;15134;48.768;9.184;2022-11-20T05:13:30;7.00;99.90
27741;DHT22;15134;48.768;9.184;2022-11-20T05:16:21;7.00;99.90
27741;DHT22;15134;48.768;9.184;2022-11-20T05:18:49;7.00;99.90
27741;DHT22;15134;48.768;9.184;2022-11-20T05:21:18;7.10;99.90
27741;DHT22;15134;48.768;9.184;2022-11-20T05:23:46;7.10;99.90
27741;DHT22;15134;48.768;9.184;2022-11-20T05:26:15;7.20;99.90
27741;DHT22;15134;48.768;9.184;2022-11-20T05:28:41;7.20;99.90
27741;DHT22;15134;48.768;9.184;2022-11-20T05:31:09;7.20;99.90
27741;DHT22;15134;48.768;9.184;2022-11-20T05:33:43;7.20;99.90
27741;DHT22;15134;48.768;9.184;2022-11-20T05:36:11;7.20;99.90
27741;DHT22;15134;48.768;9.184;2022-11-20T05:38:36;7.10;99.90
27741;DHT22;15134;48.768;9.184;2022-11-20T05:41:10;7.10;99.90
27741;DHT22;15134;48.768;9.184;2022-11-20T05:43:40;7.10;99.90
27741;DHT22;15134;48.768;9.184;2022-11-20T05:46:08;7.10;99.90
27741;DHT22;15134;48.768;9.184;2022-11-20T05:48:38;7.10;99.90
27741;DHT22;15134;48.768;9.184;2022-11-20T05:51:05;7.20;99.90
27741;DHT22;15134;48.768;9.184;2022-11-20T05:53:33;7.20;99.90
27741;DHT22;15134;48.768;9.184;2022-11-20T05:56:07;7.20;99.90
27741;DHT22;15134;48.768;9.184;2022-11-20T05:58:34;7.20;99.90
27741;DHT22;15134;48.768;9.184;2022-11-20T06:01:23;7.10;99.90
27741;DHT22;15134;48.768;9.184;2022-11-20T06:03:49;7.10;99.90
27741;DHT22;15134;48.768;9.184;2022-11-20T06:06:16;7.10;99.90
27741;DHT22;15134;48.768;9.184;2022-11-20T06:08:43;7.00;99.90
27741;DHT22;15134;48.768;9.184;2022-11-20T06:11:11;7.00;99.90
27741;DHT22;15134;48.768;9.184;2022-11-20T06:13:37;7.00;99.90
27741;DHT22;15134;48.768;9.184;2022-11-20T06:16:05;7.00;99.90
27741;DHT22;15134;48.768;9.184;2022-11-20T06:18:31;7.00;99.90
27741;DHT22;15134;48.768;9.184;2022-11-20T06:21:05;7.10;99.90
27741;DHT22;15134;48.768;9.184;2022-11-20T06:23:33;7.10;99.90
27741;DHT22;15134;48.768;9.184;2022-11-20T06:26:10;7.10;99.90
27741;DHT22;15134;48.768;9.184;2022-11-20T06:28:36;7.20;99.90
27741;DHT22;15134;48.768;9.184;2022-11-20T06:31:02;7.10;99.90
27741;DHT22;15134;48.768;9.184;2022-11-20T06:33:28;7.10;99.90
27741;DHT22;15134;48.768;9.184;2022-11-20T06:35:58;7.10;99.90
27741;DHT22;15134;48.768;9.184;2022-11-20T06:38:25;7.10;99.90
27741;DHT22;15134;48.768;9.184;2022-11-20T06:40:54;7.20;99.90
27741;DHT22;15134;48.768;9.184;2022-11-20T06:43:21;7.20;99.90
27741;DHT22;15134;48.768;9.184;2022-11-20T06:45:52;7.10;99.90
27741;DHT22;15134;48.768;9.184;2022-11-20T06:48:18;7.20;99.90
27741;DHT22;15134;48.768;9.184;2022-11-20T06:50:44;7.20;99.90
27741;DHT22;15134;48.768;9.184;2022-11-20T06:53:09;7.20;99.90
27741;DHT22;15134;48.768;9.184;2022-11-20T06:55:35;7.10;99.90
27741;DHT22;15134;48.768;9.184;2022-11-20T06:58:00;7.10;99.90
27741;DHT22;15134;48.768;9.184;2022-11-20T07:00:26;7.10;99.90
27741;DHT22;15134;48.768;9.184;2022-11-20T07:02:53;7.10;99.90
27741;DHT22;15134;48.768;9.184;2022-11-20T07:05:19;7.10;99.90
27741;DHT22;15134;48.768;9.184;2022-11-20T07:07:45;7.10;99.90
27741;DHT22;15134;48.768;9.184;2022-11-20T07:10:10;7.10;99.90
27741;DHT22;15134;48.768;9.184;2022-11-20T07:12:36;7.20;99.90
27741;DHT22;15134;48.768;9.184;2022-11-20T07:15:02;7.20;99.90
27741;DHT22;15134;48.768;9.184;2022-11-20T07:17:28;7.20;99.90
27741;DHT22;15134;48.768;9.184;2022-11-20T07:19:54;7.20;99.90
27741;DHT22;15134;48.768;9.184;2022-11-20T07:22:19;7.20;99.90
27741;DHT22;15134;48.768;9.184;2022-11-20T07:24:47;7.20;99.90
27741;DHT22;15134;48.768;9.184;2022-11-20T07:27:13;7.20;99.90
27741;DHT22;15134;48.768;9.184;2022-11-20T07:29:42;7.30;99.90
27741;DHT22;15134;48.768;9.184;2022-11-20T07:32:08;7.30;99.90
27741;DHT22;15134;48.768;9.184;2022-11-20T07:34:33;7.30;99.90
27741;DHT22;15134;48.768;9.184;2022-11-20T07:37:05;7.40;99.90
27741;DHT22;15134;48.768;9.184;2022-11-20T07:39:30;7.40;99.90
27741;DHT22;15134;48.768;9.184;2022-11-20T07:41:57;7.50;99.90
27741;DHT22;15134;48.768;9.184;2022-11-20T07:44:23;7.50;99.90
27741;DHT22;15134;48.768;9.184;2022-11-20T07:46:49;7.50;99.90
27741;DHT22;15134;48.768;9.184;2022-11-20T07:49:18;7.60;99.90
27741;DHT22;15134;48.768;9.184;2022-11-20T07:51:43;7.60;99.90
27741;DHT22;15134;48.768;9.184;2022-11-20T07:54:09;7.60;99.90
27741;DHT22;15134;48.768;9.184;2022-11-20T07:56:37;7.60;99.90
27741;DHT22;15134;48.768;9.184;2022-11-20T07:59:03;7.70;99.90
27741;DHT22;15134;48.768;9.184;2022-11-20T08:01:29;7.70;99.90
27741;DHT22;15134;48.768;9.184;2022-11-20T08:03:57;7.70;99.90
27741;DHT22;15134;48.768;9.184;2022-11-20T08:06:24;7.80;99.90
27741;DHT22;15134;48.768;9.184;2022-11-20T08:08:51;7.80;99.90
27741;DHT22;15134;48.768;9.184;2022-11-20T08:11:17;7.70;99.90
27741;DHT22;15134;48.768;9.184;2022-11-20T08:14:02;7.80;99.90
27741;DHT22;15134;48.768;9.184;2022-11-20T08:16:45;7.80;99.90
27741;DHT22;15134;48.768;9.184;2022-11-20T08:19:13;7.80;99.90
27741;DHT22;15134;48.768;9.184;2022-11-20T08:21:42;7.80;99.90
27741;DHT22;15134;48.768;9.184;2022-11-20T08:24:10;7.90;99.90
27741;DHT22;15134;48.768;9.184;2022-11-20T08:26:37;7.80;99.90
27741;DHT22;15134;48.768;9.184;2022-11-20T08:29:06;7.80;99.90
27741;DHT22;15134;48.768;9.184;2022-11-20T08:31:33;7.90;99.90
27741;DHT22;15134;48.768;9.184;2022-11-20T08:33:58;7.90;99.90
27741;DHT22;15134;48.768;9.184;2022-11-20T08:36:24;7.90;99.90
27741;DHT22;15134;48.768;9.184;2022-11-20T08:38:52;7.90;99.90
27741;DHT22;15134;48.768;9.184;2022-11-20T08:41:18;8.00;99.90
27741;DHT22;15134;48.768;9.184;2022-11-20T08:43:54;8.00;99.90
27741;DHT22;15134;48.768;9.184;2022-11-20T08:46:21;8.00;99.90
27741;DHT22;15134;48.768;9.184;2022-11-20T08:48:47;8.00;99.90
27741;DHT22;15134;48.768;9.184;2022-11-20T08:51:13;7.90;99.90
27741;DHT22;15134;48.768;9.184;2022-11-20T08:53:42;8.00;99.90
27741;DHT22;15134;48.768;9.184;2022-11-20T08:56:07;8.20;99.90
27741;DHT22;15134;48.768;9.184;2022-11-20T08:58:35;8.40;99.90
27741;DHT22;15134;48.768;9.184;2022-11-20T09:01:01;8.50;99.90
27741;DHT22;15134;48.768;9.184;2022-11-20T09:03:27;8.60;99.90
27741;DHT22;15134;48.768;9.184;2022-11-20T09:06:04;8.60;99.90
27741;DHT22;15134;48.768;9.184;2022-11-20T09:08:31;8.70;99.90
27741;DHT22;15134;48.768;9.184;2022-11-20T09:10:57;8.70;99.90
27741;DHT22;15134;48.768;9.184;2022-11-20T09:13:24;8.70;99.90
27741;DHT22;15134;48.768;9.184;2022-11-20T09:15:54;8.60;99.90
27741;DHT22;15134;48.768;9.184;2022-11-20T09:18:20;8.60;99.90
27741;DHT22;15134;48.768;9.184;2022-11-20T09:20:47;8.60;99.90
27741;DHT22;15134;48.768;9.184;2022-11-20T09:23:13;8.60;99.90
27741;DHT22;15134;48.768;9.184;2022-11-20T09:25:38;8.60;99.90
27741;DHT22;15134;48.768;9.184;2022-11-20T09:28:04;8.50;99.90
27741;DHT22;15134;48.768;9.184;2022-11-20T09:30:30;8.50;99.90
27741;DHT22;15134;48.768;9.184;2022-11-20T09:32:57;8.50;99.90
27741;DHT22;15134;48.768;9.184;2022-11-20T09:35:23;8.60;99.90
27741;DHT22;15134;48.768;9.184;2022-11-20T09:37:49;8.50;99.90
27741;DHT22;15134;48.768;9.184;2022-11-20T09:40:27;8.50;99.90
27741;DHT22;15134;48.768;9.184;2022-11-20T09:43:14;8.40;99.90
27741;DHT22;15134;48.768;9.184;2022-11-20T09:46:07;8.40;99.90
27741;DHT22;15134;48.768;9.184;2022-11-20T09:54:54;8.40;99.90
27741;DHT22;15134;48.768;9.184;2022-11-20T09:57:33;8.50;99.90
27741;DHT22;15134;48.768;9.184;2022-11-20T10:00:01;8.50;99.90
27741;DHT22;15134;48.768;9.184;2022-11-20T10:06:00;8.50;99.90
27741;DHT22;15134;48.768;9.184;2022-11-20T10:17:08;8.50;99.90
27741;DHT22;15134;48.768;9.184;2022-11-20T10:25:39;8.50;99.90
27741;DHT22;15134;48.768;9.184;2022-11-20T10:31:00;8.50;99.90
27741;DHT22;15134;48.768;9.184;2022-11-20T10:33:29;8.60;99.90
27741;DHT22;15134;48.768;9.184;2022-11-20T10:38:37;8.50;99.90
27741;DHT22;15134;48.768;9.184;2022-11-20T10:41:06;8.40;99.90
27741;DHT22;15134;48.768;9.184;2022-11-20T10:44:21;8.40;99.90
27741;DHT22;15134;48.768;9.184;2022-11-20T10:47:14;8.40;99.90
27741;DHT22;15134;48.768;9.184;2022-11-20T10:49:41;8.30;99.90
27741;DHT22;15134;48.768;9.184;2022-11-20T10:55:23;8.30;99.90
27741;DHT22;15134;48.768;9.184;2022-11-20T10:58:16;8.20;99.90
27741;DHT22;15134;48.768;9.184;2022-11-20T11:00:44;8.20;99.90
27741;DHT22;15134;48.768;9.184;2022-11-20T11:03:27;8.30;99.90
27741;DHT22;15134;48.768;9.184;2022-11-20T11:06:14;8.30;99.90
27741;DHT22;15134;48.768;9.184;2022-11-20T11:08:43;8.40;99.90
27741;DHT22;15134;48.768;9.184;2022-11-20T11:11:27;8.50;99.90
27741;DHT22;15134;48.768;9.184;2022-11-20T11:14:14;8.50;99.90
27741;DHT22;15134;48.768;9.184;2022-11-20T11:19:16;8.40;99.90
27741;DHT22;15134;48.768;9.184;2022-11-20T11:21:56;8.40;99.90
27741;DHT22;15134;48.768;9.184;2022-11-20T11:24:24;8.40;99.90
27741;DHT22;15134;48.768;9.184;2022-11-20T11:27:02;8.50;99.90
27741;DHT22;15134;48.768;9.184;2022-11-20T11:29:32;8.60;99.90
27741;DHT22;15134;48.768;9.184;2022-11-20T11:32:18;8.70;99.90
27741;DHT22;15134;48.768;9.184;2022-11-20T11:34:44;8.90;99.90
27741;DHT22;15134;48.768;9.184;2022-11-20T11:37:18;9.00;99.90
27741;DHT22;15134;48.768;9.184;2022-11-20T11:39:46;9.10;99.90
27741;DHT22;15134;48.768;9.184;2022-11-20T11:42:19;9.10;99.90
27741;DHT22;15134;48.768;9.184;2022-11-20T11:44:47;9.20;99.90
27741;DHT22;15134;48.768;9.184;2022-11-20T11:47:57;9.20;99.90
27741;DHT22;15134;48.768;9.184;2022-11-20T11:50:25;9.20;99.90
27741;DHT22;15134;48.768;9.184;2022-11-20T11:53:13;9.30;99.90
27741;DHT22;15134;48.768;9.184;2022-11-20T11:55:42;9.30;99.90
27741;DHT22;15134;48.768;9.184;2022-11-20T12:04:14;9.20;99.90
27741;DHT22;15134;48.768;9.184;2022-11-20T12:06:45;9.20;99.90
27741;DHT22;15134;48.768;9.184;2022-11-20T12:09:13;9.20;99.90
27741;DHT22;15134;48.768;9.184;2022-11-20T12:11:58;9.10;99.90
27741;DHT22;15134;48.768;9.184;2022-11-20T12:14:45;9.10;99.90
27741;DHT22;15134;48.768;9.184;2022-11-20T12:17:13;9.10;99.90
27741;DHT22;15134;48.768;9.184;2022-11-20T12:19:39;9.20;99.90
27741;DHT22;15134;48.768;9.184;2022-11-20T12:28:27;10.00;99.90
27741;DHT22;15134;48.768;9.184;2022-11-20T12:33:34;10.20;99.90
27741;DHT22;15134;48.768;9.184;2022-11-20T12:36:39;10.10;99.90
27741;DHT22;15134;48.768;9.184;2022-11-20T12:39:58;10.10;99.90
27741;DHT22;15134;48.768;9.184;2022-11-20T12:57:04;10.10;99.90
27741;DHT22;15134;48.768;9.184;2022-11-20T13:07:45;10.10;99.90
27741;DHT22;15134;48.768;9.184;2022-11-20T13:10:33;10.10;99.90
27741;DHT22;15134;48.768;9.184;2022-11-20T13:18:43;10.10;99.90
27741;DHT22;15134;48.768;9.184;2022-11-20T13:21:18;10.10;99.90
27741;DHT22;15134;48.768;9.184;2022-11-20T13:23:45;10.00;99.90
27741;DHT22;15134;48.768;9.184;2022-11-20T13:26:20;10.00;99.90
27741;DHT22;15134;48.768;9.184;2022-11-20T13:28:59;10.10;99.90
27741;DHT22;15134;48.768;9.184;2022-11-20T13:31:32;10.10;99.90
27741;DHT22;15134;48.768;9.184;2022-11-20T13:34:02;10.10;99.90
27741;DHT22;15134;48.768;9.184;2022-11-20T13:36:29;10.00;99.90
27741;DHT22;15134;48.768;9.184;2022-11-20T13:38:56;9.90;99.90
27741;DHT22;15134;48.768;9.184;2022-11-20T13:41:29;9.80;99.90
27741;DHT22;15134;48.768;9.184;2022-11-20T13:44:24;9.70;99.90
27741;DHT22;15134;48.768;9.184;2022-11-20T13:46:52;9.60;99.90
27741;DHT22;15134;48.768;9.184;2022-11-20T13:49:29;9.40;99.90
27741;DHT22;15134;48.768;9.184;2022-11-20T13:52:30;9.30;99.90
27741;DHT22;15134;48.768;9.184;2022-11-20T13:57:53;9.30;99.90
27741;DHT22;15134;48.768;9.184;2022-11-20T14:00:25;9.30;99.90
27741;DHT22;15134;48.768;9.184;2022-11-20T14:03:21;9.40;99.90
27741;DHT22;15134;48.768;9.184;2022-11-20T14:05:52;9.40;99.90
27741;DHT22;15134;48.768;9.184;2022-11-20T14:08:33;9.30;99.90
27741;DHT22;15134;48.768;9.184;2022-11-20T14:11:12;9.30;99.90
27741;DHT22;15134;48.768;9.184;2022-11-20T14:13:39;9.20;99.90
27741;DHT22;15134;48.768;9.184;2022-11-20T14:16:04;9.20;99.90
27741;DHT22;15134;48.768;9.184;2022-11-20T14:18:30;9.10;99.90
27741;DHT22;15134;48.768;9.184;2022-11-20T14:20:56;9.00;99.90
27741;DHT22;15134;48.768;9.184;2022-11-20T14:23:27;9.00;99.90
27741;DHT22;15134;48.768;9.184;2022-11-20T14:25:53;8.90;99.90
27741;DHT22;15134;48.768;9.184;2022-11-20T14:28:26;8.90;99.90
27741;DHT22;15134;48.768;9.184;2022-11-20T14:30:53;8.80;99.90
27741;DHT22;15134;48.768;9.184;2022-11-20T14:33:19;8.80;99.90
27741;DHT22;15134;48.768;9.184;2022-11-20T14:35:50;8.90;99.90
27741;DHT22;15134;48.768;9.184;2022-11-20T14:38:24;8.90;99.90
27741;DHT22;15134;48.768;9.184;2022-11-20T14:40:50;8.90;99.90
27741;DHT22;15134;48.768;9.184;2022-11-20T14:43:22;8.90;99.90
27741;DHT22;15134;48.768;9.184;2022-11-20T14:45:56;8.90;99.90
27741;DHT22;15134;48.768;9.184;2022-11-20T14:48:32;8.80;99.90
27741;DHT22;15134;48.768;9.184;2022-11-20T14:51:01;8.70;99.90
27741;DHT22;15134;48.768;9.184;2022-11-20T14:53:27;8.70;99.90
27741;DHT22;15134;48.768;9.184;2022-11-20T14:56:00;8.70;99.90
27741;DHT22;15134;48.768;9.184;2022-11-20T14:58:31;8.60;99.90
27741;DHT22;15134;48.768;9.184;2022-11-20T15:01:05;8.60;99.90
27741;DHT22;15134;48.768;9.184;2022-11-20T15:03:36;8.60;99.90
27741;DHT22;15134;48.768;9.184;2022-11-20T15:06:02;8.50;99.90
27741;DHT22;15134;48.768;9.184;2022-11-20T15:08:28;8.50;99.90
27741;DHT22;15134;48.768;9.184;2022-11-20T15:10:54;8.40;99.90
27741;DHT22;15134;48.768;9.184;2022-11-20T15:13:32;8.40;99.90
27741;DHT22;15134;48.768;9.184;2022-11-20T15:16:02;8.40;99.90
27741;DHT22;15134;48.768;9.184;2022-11-20T15:18:38;8.30;99.90
27741;DHT22;15134;48.768;9.184;2022-11-20T15:21:11;8.30;99.90
27741;DHT22;15134;48.768;9.184;2022-11-20T15:23:37;8.30;99.90
27741;DHT22;15134;48.768;9.184;2022-11-20T15:26:05;8.30;99.90
27741;DHT22;15134;48.768;9.184;2022-11-20T15:28:36;8.30;99.90
27741;DHT22;15134;48.768;9.184;2022-11-20T15:31:03;8.20;99.90
27741;DHT22;15134;48.768;9.184;2022-11-20T15:33:29;8.20;99.90
27741;DHT22;15134;48.768;9.184;2022-11-20T15:35:55;8.20;99.90
27741;DHT22;15134;48.768;9.184;2022-11-20T15:38:21;8.10;99.90
27741;DHT22;15134;48.768;9.184;2022-11-20T15:40:47;8.10;99.90
27741;DHT22;15134;48.768;9.184;2022-11-20T15:43:13;8.10;99.90
27741;DHT22;15134;48.768;9.184;2022-11-20T15:45:50;8.10;99.90
27741;DHT22;15134;48.768;9.184;2022-11-20T15:48:21;8.00;99.90
27741;DHT22;15134;48.768;9.184;2022-11-20T15:51:34;8.00;99.90
27741;DHT22;15134;48.768;9.184;2022-11-20T15:53:42;7.90;99.90
27741;DHT22;15134;48.768;9.184;2022-11-20T15:56:13;7.90;99.90
27741;DHT22;15134;48.768;9.184;2022-11-20T15:58:40;7.90;99.90
27741;DHT22;15134;48.768;9.184;2022-11-20T16:01:13;7.90;99.90
27741;DHT22;15134;48.768;9.184;2022-11-20T16:03:39;7.80;99.90
27741;DHT22;15134;48.768;9.184;2022-11-20T16:06:05;7.80;99.90
27741;DHT22;15134;48.768;9.184;2022-11-20T16:08:31;7.80;99.90
27741;DHT22;15134;48.768;9.184;2022-11-20T16:10:57;7.80;99.90
27741;DHT22;15134;48.768;9.184;2022-11-20T16:13:22;7.80;99.90
27741;DHT22;15134;48.768;9.184;2022-11-20T16:18:54;7.80;99.90
27741;DHT22;15134;48.768;9.184;2022-11-20T16:21:20;7.80;99.90
27741;DHT22;15134;48.768;9.184;2022-11-20T16:23:46;7.80;99.90
27741;DHT22;15134;48.768;9.184;2022-11-20T16:26:14;7.80;99.90
27741;DHT22;15134;48.768;9.184;2022-11-20T16:28:44;7.80;99.90
27741;DHT22;15134;48.768;9.184;2022-11-20T16:31:15;7.80;99.90
27741;DHT22;15134;48.768;9.184;2022-11-20T16:33:51;7.80;99.90
27741;DHT22;15134;48.768;9.184;2022-11-20T16:36:21;7.80;99.90
27741;DHT22;15134;48.768;9.184;2022-11-20T16:38:56;7.70;99.90
27741;DHT22;15134;48.768;9.184;2022-11-20T16:41:22;7.70;99.90
27741;DHT22;15134;48.768;9.184;2022-11-20T16:43:54;7.80;99.90
27741;DHT22;15134;48.768;9.184;2022-11-20T16:46:22;7.80;99.90
27741;DHT22;15134;48.768;9.184;2022-11-20T16:49:05;7.80;99.90
27741;DHT22;15134;48.768;9.184;2022-11-20T16:51:37;7.90;99.90
27741;DHT22;15134;48.768;9.184;2022-11-20T16:54:04;7.90;99.90
27741;DHT22;15134;48.768;9.184;2022-11-20T16:56:30;7.80;99.90
27741;DHT22;15134;48.768;9.184;2022-11-20T16:58:57;7.90;99.90
27741;DHT22;15134;48.768;9.184;2022-11-20T17:01:24;8.00;99.90
27741;DHT22;15134;48.768;9.184;2022-11-20T17:03:58;8.00;99.90
27741;DHT22;15134;48.768;9.184;2022-11-20T17:06:33;8.00;99.90
27741;DHT22;15134;48.768;9.184;2022-11-20T17:08:59;8.00;99.90
27741;DHT22;15134;48.768;9.184;2022-11-20T17:11:25;8.00;99.90
27741;DHT22;15134;48.768;9.184;2022-11-20T17:13:57;8.00;99.90
27741;DHT22;15134;48.768;9.184;2022-11-20T17:16:25;8.00;99.90
27741;DHT22;15134;48.768;9.184;2022-11-20T17:18:54;7.90;99.90
27741;DHT22;15134;48.768;9.184;2022-11-20T17:21:20;7.90;99.90
27741;DHT22;15134;48.768;9.184;2022-11-20T17:23:46;7.90;99.90
27741;DHT22;15134;48.768;9.184;2022-11-20T17:26:22;7.90;99.90
27741;DHT22;15134;48.768;9.184;2022-11-20T17:29:00;8.00;99.90
27741;DHT22;15134;48.768;9.184;2022-11-20T17:31:30;7.90;99.90
27741;DHT22;15134;48.768;9.184;2022-11-20T17:33:56;7.90;99.90